createdAt,value
2023-04-05T00:07:22.769Z,97266.98
2023-04-05T00:17:27.983Z,97256.77
2023-04-05T00:27:32.882Z,97241.40
2023-04-05T00:37:36.296Z,97236.48
2023-04-05T00:47:44.168Z,97233.56
2023-04-05T00:57:50.692Z,97235.27
2023-04-05T01:08:05.245Z,97234.05
2023-04-05T01:18:11.554Z,97229.98
2023-04-05T01:28:34.315Z,97225.73
2023-04-05T01:38:42.065Z,97221.89
2023-04-05T01:48:46.745Z,97211.88
2023-04-05T01:58:52.793Z,97208.16
2023-04-05T02:08:58.038Z,97208.80
2023-04-05T02:19:02.623Z,97205.72
2023-04-05T02:29:06.893Z,97212.34
2023-04-05T02:39:10.442Z,97207.58
2023-04-05T02:49:19.158Z,97202.91
2023-04-05T02:59:24.325Z,97204.63
2023-04-05T03:09:29.421Z,97207.64
2023-04-05T03:19:34.519Z,97214.00
2023-04-05T03:29:48.161Z,97214.05
2023-04-05T03:39:54.177Z,97212.42
2023-04-05T03:49:59.204Z,97216.65
2023-04-05T04:00:12.257Z,97216.84
2023-04-05T04:10:18.773Z,97212.16
2023-04-05T04:20:27.718Z,97219.27
2023-04-05T04:30:52.614Z,97222.60
2023-04-05T04:41:16.847Z,97226.88
2023-04-05T04:51:29.004Z,97230.17
2023-04-05T05:01:38.313Z,97229.52
2023-04-05T05:11:42.260Z,97225.09
2023-04-05T05:21:50.422Z,97230.75
2023-04-05T05:31:54.354Z,97228.02
2023-04-05T05:41:59.269Z,97225.44
2023-04-05T05:52:03.805Z,97219.00
2023-04-05T06:02:21.916Z,97220.34
2023-04-05T06:12:28.660Z,97213.10
2023-04-05T06:22:34.005Z,97202.34
2023-04-05T06:32:37.579Z,97199.73
2023-04-05T06:42:41.172Z,97196.88
2023-04-05T06:52:48.213Z,97183.70
2023-04-05T07:02:53.733Z,97186.37
2023-04-05T07:12:58.025Z,97187.17
2023-04-05T07:23:04.094Z,97183.00
2023-04-05T07:33:11.285Z,97180.55
2023-04-05T07:43:16.302Z,97175.05
2023-04-05T07:53:20.722Z,97174.20
2023-04-05T08:03:24.453Z,97168.40
2023-04-05T08:13:28.121Z,97172.36
2023-04-05T08:23:34.157Z,97173.33
2023-04-05T08:33:44.565Z,97169.54
2023-04-05T08:44:06.383Z,97164.87
2023-04-05T08:54:12.609Z,97165.70
2023-04-05T09:04:40.661Z,97154.61
2023-04-05T09:15:08.109Z,97159.02
2023-04-05T09:25:12.512Z,97158.81
2023-04-05T09:35:35.989Z,97160.91
2023-04-05T09:45:46.594Z,97154.95
2023-04-05T09:56:30.139Z,97145.20
2023-04-05T10:06:40.820Z,97149.88
2023-04-05T10:17:14.230Z,97150.23
2023-04-05T10:27:30.527Z,97148.30
2023-04-05T10:38:01.142Z,97139.70
2023-04-05T10:48:34.615Z,97136.77
2023-04-05T10:58:41.269Z,97131.70
2023-04-05T11:08:47.371Z,97133.29
2023-04-05T11:18:53.411Z,97130.39
2023-04-05T11:29:01.510Z,97131.95
2023-04-05T11:39:25.102Z,97132.10
2023-04-05T11:49:29.877Z,97125.35
2023-04-05T11:59:35.749Z,97119.21
2023-04-05T12:10:16.128Z,97121.73
2023-04-05T12:20:36.231Z,97112.11
2023-04-05T12:30:51.757Z,97119.39
2023-04-05T12:41:18.525Z,97117.11
2023-04-05T12:51:24.548Z,97116.47
2023-04-05T13:01:28.118Z,97110.84
2023-04-05T13:11:34.035Z,97107.73
2023-04-05T13:21:37.649Z,97103.64
2023-04-05T13:31:42.340Z,97102.88
2023-04-05T13:41:46.444Z,97102.73
2023-04-05T13:51:51.620Z,97092.89
2023-04-05T14:01:56.293Z,97096.58
2023-04-05T14:12:02.503Z,97104.92
2023-04-05T14:22:08.842Z,97102.64
2023-04-05T14:32:13.509Z,97108.08
2023-04-05T14:42:17.422Z,97107.58
2023-04-05T14:52:21.689Z,97101.83
2023-04-05T15:02:28.343Z,97098.59
2023-04-05T15:12:33.018Z,97091.09
2023-04-05T15:22:41.104Z,97093.14
2023-04-05T15:32:44.952Z,97092.81
2023-04-05T15:42:49.383Z,97095.67
2023-04-05T15:52:53.641Z,97108.81
2023-04-05T16:03:00.687Z,97112.63
2023-04-05T16:13:04.511Z,97111.54
2023-04-05T16:23:08.392Z,97114.27
2023-04-05T16:33:12.813Z,97124.98
2023-04-05T16:43:26.618Z,97133.10
2023-04-05T16:53:30.521Z,97135.41
2023-04-05T17:03:35.167Z,97132.58
2023-04-05T17:13:38.646Z,97139.75
2023-04-05T17:23:43.048Z,97145.71
2023-04-05T17:33:48.504Z,97147.72
2023-04-05T17:43:53.046Z,97156.78
2023-04-05T17:53:58.358Z,97165.47
2023-04-05T18:04:02.737Z,97175.52
2023-04-05T18:14:07.243Z,97172.71
2023-04-05T18:24:11.860Z,97173.73
2023-04-05T18:34:16.766Z,97177.33
2023-04-05T18:44:21.013Z,97182.63
2023-04-05T18:54:27.401Z,97183.02
2023-04-05T19:04:31.794Z,97180.83
2023-04-05T19:14:36.298Z,97180.10
2023-04-05T19:24:42.782Z,97167.93
2023-04-05T19:34:46.438Z,97176.80
2023-04-05T19:44:54.898Z,97173.20
2023-04-05T19:55:09.066Z,97163.26
2023-04-05T20:05:14.560Z,97159.36
2023-04-05T20:15:34.256Z,97151.27
2023-04-05T20:25:42.253Z,97145.60
2023-04-05T20:35:45.872Z,97140.72
2023-04-05T20:45:55.978Z,97135.55
2023-04-05T20:56:01.504Z,97133.11
2023-04-05T21:06:08.508Z,97135.44
2023-04-05T21:16:14.941Z,97127.29
2023-04-05T21:26:18.339Z,97116.69
2023-04-05T21:36:23.887Z,97109.91
2023-04-05T21:46:28.025Z,97105.59
2023-04-05T21:56:31.532Z,97097.13
2023-04-05T22:06:35.741Z,97100.99
2023-04-05T22:16:39.590Z,97101.23
2023-04-05T22:26:43.385Z,97108.21
2023-04-05T22:36:49.398Z,97112.18
2023-04-05T22:46:53.501Z,97115.19
2023-04-05T22:56:58.293Z,97113.52
2023-04-05T23:07:03.366Z,97110.59
2023-04-05T23:17:06.525Z,97115.02
2023-04-05T23:27:20.579Z,97113.86
2023-04-05T23:37:34.604Z,97107.80
2023-04-05T23:47:38.504Z,97109.44
2023-04-05T23:58:09.157Z,97102.30
